createdAt,value
2022-12-19T00:01:26.633Z,15.83
2022-12-19T00:03:58.420Z,15.67
2022-12-19T00:06:25.640Z,15.63
2022-12-19T00:08:53.654Z,16.30
2022-12-19T00:11:23.106Z,12.03
2022-12-19T00:13:49.905Z,15.10
2022-12-19T00:16:19.821Z,14.53
2022-12-19T00:18:48.812Z,15.13
2022-12-19T00:21:17.705Z,16.10
2022-12-19T00:23:45.614Z,17.87
2022-12-19T00:26:13.333Z,15.67
2022-12-19T00:28:40.888Z,15.20
2022-12-19T00:31:07.403Z,14.20
2022-12-19T00:33:34.343Z,13.67
2022-12-19T00:36:07.282Z,15.90
2022-12-19T00:38:34.405Z,14.70
2022-12-19T00:41:32.124Z,14.17
2022-12-19T00:44:00.898Z,12.67
2022-12-19T00:46:28.720Z,11.57
2022-12-19T00:48:55.496Z,12.87
2022-12-19T00:51:25.064Z,13.07
2022-12-19T00:53:53.807Z,12.47
2022-12-19T00:56:26.807Z,11.60
2022-12-19T00:58:54.615Z,10.27
2022-12-19T01:01:33.333Z,9.63
2022-12-19T01:06:47.259Z,12.03
2022-12-19T01:09:14.755Z,11.80
2022-12-19T01:12:00.002Z,11.13
2022-12-19T01:14:26.653Z,11.27
2022-12-19T01:16:53.046Z,13.33
2022-12-19T01:19:20.250Z,12.40
2022-12-19T01:21:46.835Z,12.33
2022-12-19T01:24:13.919Z,13.37
2022-12-19T01:26:45.832Z,14.07
2022-12-19T01:29:12.396Z,14.37
2022-12-19T01:31:39.009Z,14.03
2022-12-19T01:34:06.797Z,13.87
2022-12-19T01:36:34.687Z,12.73
2022-12-19T01:39:05.137Z,10.90
2022-12-19T01:41:31.645Z,9.53
2022-12-19T01:44:01.936Z,13.13
2022-12-19T01:46:40.213Z,14.07
2022-12-19T01:49:19.133Z,7.63
2022-12-19T01:51:51.095Z,11.93
2022-12-19T01:54:22.497Z,10.93
2022-12-19T01:56:51.973Z,12.77
2022-12-19T01:59:28.385Z,13.20
2022-12-19T02:02:00.493Z,10.23
2022-12-19T02:04:32.524Z,11.00
2022-12-19T02:07:15.321Z,9.40
2022-12-19T02:09:45.119Z,11.43
2022-12-19T02:12:11.775Z,13.33
2022-12-19T02:14:38.540Z,11.87
2022-12-19T02:17:33.004Z,11.23
2022-12-19T02:20:17.736Z,11.73
2022-12-19T02:23:16.548Z,13.73
2022-12-19T02:25:56.843Z,10.63
2022-12-19T02:28:46.211Z,12.57
2022-12-19T02:31:21.803Z,9.93
2022-12-19T02:34:23.785Z,10.40
2022-12-19T02:36:57.435Z,8.83
2022-12-19T02:39:39.392Z,10.53
2022-12-19T02:42:09.826Z,11.73
2022-12-19T02:44:45.165Z,13.60
2022-12-19T02:47:13.494Z,11.10
2022-12-19T02:49:40.266Z,14.53
2022-12-19T02:52:32.922Z,11.03
2022-12-19T02:55:13.548Z,7.90
2022-12-19T02:58:10.788Z,11.90
2022-12-19T03:00:49.054Z,10.23
2022-12-19T03:03:37.689Z,10.43
2022-12-19T03:06:14.075Z,11.03
2022-12-19T03:08:53.907Z,9.87
2022-12-19T03:11:22.784Z,10.50
2022-12-19T03:14:00.465Z,10.37
2022-12-19T03:16:27.404Z,9.23
2022-12-19T03:18:54.478Z,8.03
2022-12-19T03:21:27.366Z,9.87
2022-12-19T03:23:55.596Z,7.27
2022-12-19T03:26:26.584Z,10.43
2022-12-19T03:29:01.738Z,8.83
2022-12-19T03:31:32.437Z,8.00
2022-12-19T03:34:08.680Z,5.77
2022-12-19T03:36:41.437Z,7.23
2022-12-19T03:39:11.106Z,6.93
2022-12-19T03:41:58.214Z,7.63
2022-12-19T03:44:28.520Z,6.67
2022-12-19T03:47:00.137Z,6.23
2022-12-19T03:49:26.912Z,6.23
2022-12-19T03:52:03.256Z,4.93
2022-12-19T03:55:10.244Z,6.60
2022-12-19T03:57:47.706Z,6.57
2022-12-19T04:00:17.646Z,6.27
2022-12-19T04:02:50.329Z,5.83
2022-12-19T04:05:26.093Z,4.37
2022-12-19T04:07:57.005Z,5.50
2022-12-19T04:10:26.494Z,5.00
2022-12-19T04:13:19.375Z,8.37
2022-12-19T04:16:27.586Z,6.43
2022-12-19T04:19:03.182Z,5.93
2022-12-19T04:21:40.364Z,5.47
2022-12-19T04:24:13.120Z,6.07
2022-12-19T04:26:48.622Z,5.80
2022-12-19T04:29:15.951Z,6.17
2022-12-19T04:31:43.657Z,4.83
2022-12-19T04:34:10.347Z,6.40
2022-12-19T04:36:36.878Z,4.63
2022-12-19T04:39:03.976Z,6.80
2022-12-19T04:41:30.388Z,6.80
2022-12-19T04:43:56.781Z,5.43
2022-12-19T04:46:23.375Z,6.23
2022-12-19T04:48:49.902Z,5.90
2022-12-19T04:51:16.420Z,3.80
2022-12-19T04:53:42.882Z,4.83
2022-12-19T04:56:09.616Z,5.73
2022-12-19T04:58:36.248Z,4.90
2022-12-19T05:01:07.694Z,6.13
2022-12-19T05:03:34.990Z,2.93
2022-12-19T05:06:10.397Z,4.77
2022-12-19T05:08:38.714Z,4.70
2022-12-19T05:11:05.873Z,4.47
2022-12-19T05:13:32.782Z,4.07
2022-12-19T05:16:01.446Z,5.37
2022-12-19T05:18:28.767Z,4.70
2022-12-19T05:20:55.991Z,4.80
2022-12-19T05:23:23.074Z,5.50
2022-12-19T05:25:50.035Z,5.53
2022-12-19T05:28:17.135Z,5.40
2022-12-19T05:30:47.754Z,5.33
2022-12-19T05:33:17.159Z,4.07
2022-12-19T05:35:43.862Z,5.73
2022-12-19T05:38:10.457Z,6.13
2022-12-19T05:40:36.915Z,5.23
2022-12-19T05:43:03.823Z,5.83
2022-12-19T05:45:30.315Z,6.07
2022-12-19T05:48:01.195Z,5.67
2022-12-19T05:50:28.227Z,6.00
2022-12-19T05:52:54.613Z,4.00
2022-12-19T05:55:21.053Z,3.67
2022-12-19T05:57:47.646Z,7.23
2022-12-19T06:00:15.179Z,5.47
2022-12-19T06:02:42.312Z,5.43
2022-12-19T06:05:09.168Z,5.17
2022-12-19T06:07:35.668Z,5.23
2022-12-19T06:10:02.228Z,5.30
2022-12-19T06:12:28.616Z,7.30
2022-12-19T06:14:56.129Z,6.10
2022-12-19T06:17:22.994Z,5.77
2022-12-19T06:19:49.409Z,6.80
2022-12-19T06:22:16.917Z,6.23
2022-12-19T06:24:43.286Z,6.63
2022-12-19T06:27:09.934Z,7.27
2022-12-19T06:29:36.407Z,6.27
2022-12-19T06:32:02.884Z,5.63
2022-12-19T06:35:02.349Z,6.67
2022-12-19T06:37:15.724Z,6.30
2022-12-19T06:39:42.157Z,5.77
2022-12-19T06:42:24.949Z,6.20
2022-12-19T06:44:54.188Z,5.67
2022-12-19T06:47:22.191Z,5.00
2022-12-19T06:49:49.049Z,6.07
2022-12-19T06:52:16.353Z,6.77
2022-12-19T06:54:42.779Z,5.97
2022-12-19T06:57:09.172Z,5.77
2022-12-19T06:59:35.608Z,6.60
2022-12-19T07:02:27.768Z,4.43
2022-12-19T07:05:04.299Z,7.00
2022-12-19T07:07:30.875Z,6.50
2022-12-19T07:09:57.502Z,6.53
2022-12-19T07:12:23.880Z,7.20
2022-12-19T07:14:53.725Z,5.97
2022-12-19T07:17:22.194Z,6.63
2022-12-19T07:19:48.663Z,6.73
2022-12-19T07:22:15.198Z,7.77
2022-12-19T07:24:41.723Z,6.93
2022-12-19T07:27:08.234Z,5.20
2022-12-19T07:29:34.654Z,4.30
2022-12-19T07:32:01.090Z,6.47
2022-12-19T07:34:27.567Z,5.50
2022-12-19T07:36:54.082Z,4.63
2022-12-19T07:39:21.809Z,5.13
2022-12-19T07:41:48.346Z,6.40
2022-12-19T07:44:16.480Z,5.40
2022-12-19T07:46:43.394Z,5.53
2022-12-19T07:49:09.904Z,5.67
2022-12-19T07:51:36.390Z,6.33
2022-12-19T07:54:05.988Z,5.20
2022-12-19T07:56:32.535Z,6.73
2022-12-19T07:58:59.083Z,6.57
2022-12-19T08:01:28.289Z,5.80
2022-12-19T08:03:55.959Z,5.73
2022-12-19T08:06:23.408Z,4.63
2022-12-19T08:08:50.226Z,5.60
2022-12-19T08:11:19.701Z,4.93
2022-12-19T08:13:46.964Z,3.07
2022-12-19T08:16:14.056Z,5.60
2022-12-19T08:18:40.705Z,5.80
2022-12-19T08:21:08.360Z,3.83
2022-12-19T08:23:35.099Z,6.17
2022-12-19T08:26:07.175Z,4.53
2022-12-19T08:28:35.743Z,4.93
2022-12-19T08:31:17.380Z,5.90
2022-12-19T08:33:44.919Z,6.97
2022-12-19T08:36:14.273Z,5.07
2022-12-19T08:38:41.152Z,4.50
2022-12-19T08:41:08.361Z,5.93
2022-12-19T08:43:35.097Z,5.13
2022-12-19T08:46:01.767Z,4.73
2022-12-19T08:48:28.369Z,4.33
2022-12-19T08:50:56.802Z,4.57
2022-12-19T08:53:26.646Z,5.90
2022-12-19T08:56:01.645Z,5.30
2022-12-19T08:58:30.261Z,5.60
2022-12-19T09:01:06.301Z,5.50
2022-12-19T09:03:38.105Z,5.13
2022-12-19T09:06:19.921Z,5.07
2022-12-19T09:08:46.928Z,5.33
2022-12-19T09:11:16.482Z,4.70
2022-12-19T09:13:45.002Z,4.50
2022-12-19T09:16:15.583Z,4.43
2022-12-19T09:18:48.406Z,4.57
2022-12-19T09:21:16.154Z,4.87
2022-12-19T09:23:42.896Z,4.97
2022-12-19T09:26:12.981Z,5.30
2022-12-19T09:28:40.847Z,4.60
2022-12-19T09:31:11.908Z,3.20
2022-12-19T09:33:43.316Z,3.67
2022-12-19T09:36:15.582Z,4.53
2022-12-19T09:38:42.302Z,4.80
2022-12-19T09:41:30.559Z,4.63
2022-12-19T09:44:36.170Z,4.63
2022-12-19T09:47:14.539Z,3.63
2022-12-19T09:49:44.689Z,4.70
2022-12-19T09:52:32.987Z,4.03
2022-12-19T09:55:28.141Z,4.57
2022-12-19T09:58:08.081Z,4.97
2022-12-19T10:00:40.361Z,5.53
2022-12-19T10:03:32.266Z,5.13
2022-12-19T10:07:14.004Z,5.23
2022-12-19T10:10:29.192Z,3.43
2022-12-19T10:12:50.814Z,5.20
2022-12-19T10:15:47.183Z,4.70
2022-12-19T10:18:51.156Z,3.57
2022-12-19T10:21:43.191Z,3.93
2022-12-19T10:25:08.192Z,5.03
2022-12-19T10:27:58.502Z,3.53
2022-12-19T10:30:25.720Z,4.67
2022-12-19T10:32:59.769Z,4.87
2022-12-19T10:35:33.057Z,5.03
2022-12-19T10:38:11.725Z,2.90
2022-12-19T10:40:51.957Z,4.53
2022-12-19T10:43:40.818Z,4.07
2022-12-19T10:46:41.241Z,3.40
2022-12-19T10:49:17.067Z,4.37
2022-12-19T10:51:55.536Z,4.90
2022-12-19T10:54:46.217Z,5.07
2022-12-19T10:57:27.603Z,2.83
2022-12-19T11:00:13.477Z,4.33
2022-12-19T11:02:44.720Z,4.23
2022-12-19T11:05:38.946Z,3.60
2022-12-19T11:08:08.298Z,3.53
2022-12-19T11:12:02.672Z,3.60
2022-12-19T11:18:53.577Z,3.87
2022-12-19T11:22:19.177Z,3.30
2022-12-19T11:29:27.069Z,3.60
2022-12-19T11:30:05.168Z,4.77
2022-12-19T11:30:43.541Z,4.00
2022-12-19T11:30:45.892Z,4.47
2022-12-19T11:32:32.010Z,3.73
2022-12-19T11:34:19.331Z,4.57
2022-12-19T11:37:16.981Z,4.20
2022-12-19T11:39:52.833Z,4.47
2022-12-19T11:42:37.445Z,3.27
2022-12-19T11:45:26.908Z,3.67
2022-12-19T11:48:01.992Z,4.47
2022-12-19T11:50:32.764Z,3.50
2022-12-19T11:53:18.434Z,3.73
2022-12-19T11:55:51.466Z,3.30
2022-12-19T11:58:17.932Z,3.47
2022-12-19T12:01:02.035Z,3.43
2022-12-19T12:04:01.855Z,2.47
2022-12-19T12:06:34.025Z,3.70
2022-12-19T12:12:00.409Z,3.60
2022-12-19T12:20:03.901Z,3.70
2022-12-19T12:27:07.096Z,3.90
2022-12-19T12:31:13.483Z,3.57
2022-12-19T12:31:40.357Z,3.80
2022-12-19T12:31:41.610Z,3.73
2022-12-19T12:31:42.627Z,3.50
2022-12-19T12:32:05.785Z,4.13
2022-12-19T12:35:48.803Z,4.20
2022-12-19T12:39:35.367Z,3.03
2022-12-19T12:42:20.545Z,4.50
2022-12-19T12:44:50.690Z,3.83
2022-12-19T12:47:20.538Z,4.63
2022-12-19T12:50:03.458Z,4.23
2022-12-19T12:52:35.130Z,4.00
2022-12-19T12:55:04.687Z,3.97
2022-12-19T12:57:37.064Z,4.63
2022-12-19T13:00:23.633Z,4.87
2022-12-19T13:03:12.923Z,3.90
2022-12-19T13:06:04.698Z,4.70
2022-12-19T13:08:34.437Z,3.40
2022-12-19T13:11:03.870Z,4.33
2022-12-19T13:13:51.736Z,4.93
2022-12-19T13:16:43.219Z,4.90
2022-12-19T13:19:34.907Z,4.13
2022-12-19T13:22:04.381Z,5.47
2022-12-19T13:25:00.331Z,4.77
2022-12-19T13:27:26.863Z,4.70
2022-12-19T13:30:07.926Z,4.47
2022-12-19T13:32:40.195Z,4.23
2022-12-19T13:36:35.661Z,4.63
2022-12-19T13:39:56.520Z,3.80
2022-12-19T13:41:23.246Z,3.90
2022-12-19T13:43:50.002Z,4.73
2022-12-19T13:46:31.085Z,4.53
2022-12-19T13:49:06.989Z,4.00
2022-12-19T13:51:48.692Z,5.20
2022-12-19T13:54:23.242Z,4.30
2022-12-19T13:56:51.771Z,4.70
2022-12-19T13:59:21.290Z,3.83
2022-12-19T14:01:48.683Z,4.27
2022-12-19T14:04:35.445Z,4.27
2022-12-19T14:07:21.739Z,3.67
2022-12-19T14:11:35.338Z,3.20
2022-12-19T14:13:43.628Z,4.13
2022-12-19T14:15:52.387Z,4.17
2022-12-19T14:18:44.915Z,4.30
2022-12-19T14:22:05.376Z,4.57
2022-12-19T14:24:22.433Z,3.67
2022-12-19T14:28:16.911Z,3.37
2022-12-19T14:30:30.702Z,4.40
2022-12-19T14:33:39.356Z,4.00
2022-12-19T14:36:06.159Z,3.80
2022-12-19T14:39:26.450Z,4.20
2022-12-19T14:41:46.270Z,4.73
2022-12-19T14:54:01.530Z,3.90
2022-12-19T14:54:02.261Z,3.83
2022-12-19T14:54:10.025Z,3.43
2022-12-19T14:54:40.347Z,3.87
2022-12-19T14:56:13.488Z,4.17
2022-12-19T14:58:52.098Z,3.93
2022-12-19T15:01:33.075Z,3.90
2022-12-19T15:04:53.009Z,4.13
2022-12-19T15:07:11.256Z,4.23
2022-12-19T15:11:07.400Z,4.03
2022-12-19T15:14:49.151Z,3.57
2022-12-19T15:15:58.957Z,3.63
2022-12-19T15:18:39.286Z,3.87
2022-12-19T15:21:14.597Z,3.57
2022-12-19T15:23:43.621Z,4.37
2022-12-19T15:26:15.740Z,4.40
2022-12-19T15:28:51.397Z,3.60
2022-12-19T15:31:33.003Z,3.30
2022-12-19T15:34:33.030Z,3.53
2022-12-19T15:36:45.918Z,4.07
2022-12-19T15:39:12.365Z,3.87
2022-12-19T15:41:38.806Z,3.37
2022-12-19T15:44:14.169Z,3.87
2022-12-19T15:46:48.090Z,1.97
2022-12-19T15:49:17.022Z,3.37
2022-12-19T15:51:44.119Z,3.50
2022-12-19T15:54:46.492Z,3.83
2022-12-19T15:56:57.284Z,2.80
2022-12-19T15:59:49.919Z,3.67
2022-12-19T16:02:19.164Z,3.90
2022-12-19T16:04:47.716Z,3.57
2022-12-19T16:07:19.457Z,3.87
2022-12-19T16:09:46.358Z,3.60
2022-12-19T16:12:24.396Z,4.10
2022-12-19T16:14:56.858Z,4.50
2022-12-19T16:17:25.184Z,3.17
2022-12-19T16:19:52.806Z,4.13
2022-12-19T16:22:25.166Z,4.37
2022-12-19T16:24:54.045Z,4.37
2022-12-19T16:27:27.409Z,3.67
2022-12-19T16:29:55.358Z,3.67
2022-12-19T16:32:24.174Z,4.07
2022-12-19T16:34:52.851Z,4.40
2022-12-19T16:37:19.338Z,3.70
2022-12-19T16:39:45.887Z,4.03
2022-12-19T16:42:15.310Z,4.63
2022-12-19T16:44:45.415Z,2.87
2022-12-19T16:47:17.721Z,3.83
2022-12-19T16:49:45.336Z,3.93
2022-12-19T16:52:12.268Z,3.70
2022-12-19T16:54:38.736Z,3.93
2022-12-19T16:57:14.837Z,4.87
2022-12-19T16:59:41.878Z,4.07
2022-12-19T17:02:44.557Z,4.03
2022-12-19T17:05:35.425Z,3.50
2022-12-19T17:08:02.139Z,4.37
2022-12-19T17:10:33.628Z,4.33
2022-12-19T17:13:03.198Z,3.37
2022-12-19T17:15:33.767Z,3.17
2022-12-19T17:18:02.672Z,3.30
2022-12-19T17:20:35.545Z,4.27
2022-12-19T17:23:01.932Z,3.80
2022-12-19T17:25:28.802Z,3.90
2022-12-19T17:27:56.025Z,3.93
2022-12-19T17:30:22.654Z,3.77
2022-12-19T17:32:50.974Z,3.07
2022-12-19T17:35:27.321Z,4.23
2022-12-19T17:37:57.236Z,2.20
2022-12-19T17:40:30.483Z,3.63
2022-12-19T17:42:57.599Z,3.10
2022-12-19T17:45:25.800Z,4.00
2022-12-19T17:48:00.396Z,4.30
2022-12-19T17:50:34.550Z,3.73
2022-12-19T17:53:01.304Z,3.90
2022-12-19T17:55:29.642Z,4.00
2022-12-19T17:57:57.059Z,4.17
2022-12-19T18:00:30.310Z,3.90
2022-12-19T18:03:05.175Z,3.67
2022-12-19T18:05:36.414Z,4.17
2022-12-19T18:08:03.580Z,3.67
2022-12-19T18:10:31.550Z,3.63
2022-12-19T18:12:58.307Z,3.67
2022-12-19T18:15:25.400Z,3.83
2022-12-19T18:17:53.428Z,3.93
2022-12-19T18:20:31.989Z,3.63
2022-12-19T18:23:00.390Z,3.73
2022-12-19T18:25:31.003Z,4.60
2022-12-19T18:27:58.410Z,4.50
2022-12-19T18:30:26.025Z,4.03
2022-12-19T18:33:01.424Z,3.77
2022-12-19T18:35:36.857Z,3.80
2022-12-19T18:38:12.405Z,3.63
2022-12-19T18:40:39.203Z,4.47
2022-12-19T18:43:06.307Z,3.97
2022-12-19T18:45:38.894Z,4.13
2022-12-19T18:48:14.465Z,4.03
2022-12-19T18:50:41.866Z,3.73
2022-12-19T18:53:14.223Z,4.20
2022-12-19T18:55:40.779Z,4.00
2022-12-19T18:58:07.345Z,3.77
2022-12-19T19:00:35.578Z,4.10
2022-12-19T19:03:05.260Z,4.00
2022-12-19T19:05:34.453Z,4.17
2022-12-19T19:08:12.729Z,4.10
2022-12-19T19:10:39.239Z,4.13
2022-12-19T19:13:10.146Z,4.00
2022-12-19T19:15:42.730Z,4.33
2022-12-19T19:18:09.346Z,4.60
2022-12-19T19:20:38.815Z,4.27
2022-12-19T19:23:11.483Z,4.00
2022-12-19T19:25:38.025Z,3.83
2022-12-19T19:28:05.450Z,4.10
2022-12-19T19:30:34.563Z,4.13
2022-12-19T19:33:10.431Z,3.87
2022-12-19T19:35:38.708Z,4.10
2022-12-19T19:38:08.719Z,3.23
2022-12-19T19:40:36.837Z,3.57
2022-12-19T19:43:04.179Z,3.97
2022-12-19T19:45:30.902Z,3.73
2022-12-19T19:47:57.468Z,3.37
2022-12-19T19:50:24.704Z,3.27
2022-12-19T19:52:51.251Z,3.57
2022-12-19T19:55:17.791Z,3.30
2022-12-19T19:57:45.259Z,2.83
2022-12-19T20:00:12.330Z,3.87
2022-12-19T20:02:39.116Z,4.10
2022-12-19T20:05:06.228Z,3.60
2022-12-19T20:07:32.839Z,4.07
2022-12-19T20:09:59.264Z,3.20
2022-12-19T20:12:25.734Z,3.63
2022-12-19T20:14:52.499Z,3.33
2022-12-19T20:17:19.044Z,3.63
2022-12-19T20:19:45.582Z,3.93
2022-12-19T20:22:12.001Z,4.63
2022-12-19T20:24:38.525Z,3.37
2022-12-19T20:27:04.971Z,3.77
2022-12-19T20:29:31.507Z,4.40
2022-12-19T20:31:57.979Z,3.73
2022-12-19T20:34:25.772Z,4.03
2022-12-19T20:36:52.341Z,4.47
2022-12-19T20:39:22.152Z,4.03
2022-12-19T20:41:52.914Z,4.33
2022-12-19T20:44:24.149Z,3.53
2022-12-19T20:46:51.624Z,3.47
2022-12-19T20:49:18.737Z,4.20
2022-12-19T20:51:47.652Z,3.90
2022-12-19T20:54:15.749Z,3.43
2022-12-19T20:56:42.646Z,4.17
2022-12-19T20:59:09.886Z,4.30
2022-12-19T21:01:36.445Z,4.77
2022-12-19T21:04:03.547Z,3.50
2022-12-19T21:06:30.463Z,4.57
2022-12-19T21:08:57.337Z,3.80
2022-12-19T21:11:26.154Z,3.70
2022-12-19T21:13:52.737Z,3.97
2022-12-19T21:16:22.081Z,3.43
2022-12-19T21:18:49.955Z,3.87
2022-12-19T21:21:25.662Z,4.00
2022-12-19T21:23:53.916Z,4.10
2022-12-19T21:26:22.715Z,4.33
2022-12-19T21:28:50.750Z,4.30
2022-12-19T21:31:29.287Z,4.23
2022-12-19T21:33:58.383Z,3.90
2022-12-19T21:36:26.195Z,4.27
2022-12-19T21:38:55.825Z,4.50
2022-12-19T21:41:22.586Z,3.97
2022-12-19T21:43:53.477Z,4.13
2022-12-19T21:46:22.352Z,4.10
2022-12-19T21:48:50.813Z,4.10
2022-12-19T21:51:19.825Z,3.73
2022-12-19T21:53:46.766Z,3.27
2022-12-19T21:56:25.644Z,4.30
2022-12-19T21:58:54.175Z,3.37
2022-12-19T22:01:21.026Z,4.13
2022-12-19T22:03:47.770Z,4.30
2022-12-19T22:06:27.762Z,4.43
2022-12-19T22:08:55.233Z,4.07
2022-12-19T22:11:22.028Z,3.40
2022-12-19T22:13:49.797Z,3.50
2022-12-19T22:16:17.183Z,3.37
2022-12-19T22:18:44.689Z,3.57
2022-12-19T22:21:13.356Z,4.50
2022-12-19T22:23:40.385Z,3.23
2022-12-19T22:26:17.188Z,3.90
2022-12-19T22:28:46.312Z,3.73
2022-12-19T22:31:21.865Z,3.90
2022-12-19T22:33:50.232Z,3.63
2022-12-19T22:36:23.952Z,3.50
2022-12-19T22:38:54.195Z,3.67
2022-12-19T22:41:21.265Z,3.70
2022-12-19T22:43:47.845Z,3.50
2022-12-19T22:46:19.521Z,3.37
2022-12-19T22:48:47.113Z,3.47
2022-12-19T22:51:14.930Z,3.57
2022-12-19T22:53:42.275Z,3.50
2022-12-19T22:56:13.220Z,3.83
2022-12-19T22:58:41.833Z,3.43
2022-12-19T23:01:26.616Z,3.30
2022-12-19T23:03:55.586Z,4.43
2022-12-19T23:06:23.635Z,3.93
2022-12-19T23:08:50.059Z,3.00
2022-12-19T23:11:20.032Z,3.40
2022-12-19T23:13:47.362Z,3.53
2022-12-19T23:16:13.946Z,3.53
2022-12-19T23:18:41.115Z,3.67
2022-12-19T23:21:19.239Z,3.53
2022-12-19T23:23:47.488Z,3.97
2022-12-19T23:26:23.099Z,3.50
2022-12-19T23:28:54.931Z,3.40
2022-12-19T23:31:22.161Z,3.30
2022-12-19T23:33:49.184Z,3.10
2022-12-19T23:36:15.848Z,3.30
2022-12-19T23:38:43.413Z,3.40
2022-12-19T23:41:12.927Z,3.53
2022-12-19T23:43:40.243Z,3.70
2022-12-19T23:46:08.329Z,3.37
2022-12-19T23:48:34.845Z,3.40
2022-12-19T23:51:04.099Z,2.90
2022-12-19T23:53:31.396Z,3.23
2022-12-19T23:55:58.639Z,3.20
2022-12-19T23:58:25.232Z,3.50
